createdAt,value
2022-08-03T06:13:39.219Z,1008.09
2022-08-03T06:23:53.851Z,1008.06
2022-08-03T06:34:30.572Z,1008.11
2022-08-03T06:44:03.733Z,1008.27
2022-08-03T06:53:39.193Z,1008.26
2022-08-03T07:03:39.250Z,1008.37
2022-08-03T07:13:39.164Z,1008.34
2022-08-03T07:23:39.171Z,1008.34
2022-08-03T07:33:39.302Z,1008.30
2022-08-03T07:43:39.112Z,1008.41
2022-08-03T07:53:47.328Z,1008.38
2022-08-03T08:03:40.997Z,1008.36
2022-08-03T08:13:39.193Z,1008.27
2022-08-03T08:23:43.493Z,1008.31
2022-08-03T08:34:03.262Z,1008.21
2022-08-03T08:43:39.285Z,1008.23
2022-08-03T08:53:39.319Z,1008.21
2022-08-03T09:03:39.262Z,1008.28
2022-08-03T09:13:39.235Z,1008.19
2022-08-03T09:23:51.680Z,1008.02
2022-08-03T09:33:39.283Z,1008.05
2022-08-03T09:43:39.335Z,1008.05
2022-08-03T09:53:39.329Z,1008.07
2022-08-03T10:04:03.124Z,1007.87
2022-08-03T10:13:39.339Z,1008.01
2022-08-03T10:23:39.503Z,1007.84
2022-08-03T10:33:50.972Z,1007.88
2022-08-03T10:43:39.371Z,1007.69
2022-08-03T10:53:39.513Z,1007.70
2022-08-03T11:03:39.286Z,1007.71
2022-08-03T11:13:39.255Z,1007.50
2022-08-03T11:24:04.567Z,1007.59
2022-08-03T11:33:39.320Z,1007.41
2022-08-03T11:43:39.356Z,1007.44
2022-08-03T11:53:41.729Z,1007.42
2022-08-03T12:03:39.362Z,1007.46
2022-08-03T12:14:33.139Z,1007.39
2022-08-03T12:23:39.365Z,1007.30
2022-08-03T12:33:39.473Z,1007.35
2022-08-03T12:43:39.839Z,1007.35
2022-08-03T12:53:39.360Z,1007.14
2022-08-03T13:03:42.468Z,1007.06
2022-08-03T13:13:39.466Z,1007.01
2022-08-03T13:23:39.483Z,1006.90
2022-08-03T13:33:39.523Z,1006.98
2022-08-03T13:43:40.186Z,1006.79
2022-08-03T13:53:39.650Z,1006.64
2022-08-03T14:03:39.546Z,1006.63
2022-08-03T14:13:39.680Z,1006.51
2022-08-03T14:23:39.389Z,1006.39
2022-08-03T14:33:39.709Z,1006.52
2022-08-03T14:43:39.502Z,1006.45
2022-08-03T14:53:39.643Z,1006.36
2022-08-03T15:03:39.563Z,1006.26
2022-08-03T15:13:39.578Z,1006.20
2022-08-03T15:23:39.740Z,1006.21
2022-08-03T15:33:39.726Z,1006.18
2022-08-03T15:43:39.968Z,1005.99
2022-08-03T15:53:39.929Z,1005.98
2022-08-03T16:03:40.042Z,1005.93
2022-08-03T16:14:04.787Z,1005.94
2022-08-03T16:23:39.922Z,1005.80
2022-08-03T16:33:39.860Z,1005.97
2022-08-03T16:43:40.044Z,1005.90
2022-08-03T16:54:07.602Z,1006.03
2022-08-03T17:03:57.106Z,1005.91
2022-08-03T17:13:40.334Z,1005.92
2022-08-03T17:23:39.933Z,1005.78
2022-08-03T17:33:39.907Z,1005.89
2022-08-03T17:53:40.000Z,1006.06
2022-08-03T18:03:57.773Z,1006.09
2022-08-03T18:13:40.134Z,1006.04
2022-08-03T18:23:40.094Z,1006.03
2022-08-03T18:34:32.067Z,1006.12
2022-08-03T18:43:47.352Z,1006.28
2022-08-03T18:54:02.198Z,1006.26
2022-08-03T19:03:41.477Z,1006.32
2022-08-03T19:13:40.113Z,1006.41
2022-08-03T21:12:54.884Z,1005.78
